createdAt,value
2022-08-25T00:00:03.315Z,64.98
2022-08-25T00:01:09.438Z,65.16
2022-08-25T00:02:14.608Z,65.11
2022-08-25T00:03:24.209Z,63.93
2022-08-25T00:04:28.595Z,64.8
2022-08-25T00:05:35.457Z,64.97
2022-08-25T00:06:40.075Z,64.66
2022-08-25T00:07:44.486Z,64.85
2022-08-25T00:08:48.852Z,64.6
2022-08-25T00:09:53.230Z,65.07
2022-08-25T00:11:05.337Z,64.73
2022-08-25T00:12:09.712Z,64.94
2022-08-25T00:13:14.089Z,64.53
2022-08-25T00:14:18.436Z,65.07
2022-08-25T00:15:22.870Z,64.6
2022-08-25T00:16:27.228Z,64.99
2022-08-25T00:17:31.593Z,64.91
2022-08-25T00:18:35.959Z,65.03
2022-08-25T00:19:40.362Z,64.55
2022-08-25T00:20:50.983Z,64.77
2022-08-25T00:21:55.355Z,64.81
2022-08-25T00:22:59.739Z,64.7
2022-08-25T00:24:04.173Z,64.9
2022-08-25T00:25:08.588Z,64.76
2022-08-25T00:26:12.984Z,64.32
2022-08-25T00:27:17.413Z,64.83
2022-08-25T00:28:21.790Z,64.83
2022-08-25T00:29:26.168Z,64.53
2022-08-25T00:30:30.558Z,64.94
2022-08-25T00:31:40.760Z,64.6
2022-08-25T00:32:58.439Z,64.57
2022-08-25T00:34:02.811Z,64.85
2022-08-25T00:35:07.216Z,64.69
2022-08-25T00:36:11.588Z,64.51
2022-08-25T00:37:15.964Z,64.51
2022-08-25T00:38:20.427Z,64.6
2022-08-25T00:39:24.863Z,64.96
2022-08-25T00:40:29.574Z,64.87
2022-08-25T00:41:34.017Z,64.94
2022-08-25T00:42:38.430Z,64.32
2022-08-25T00:43:42.844Z,64.33
2022-08-25T00:44:47.787Z,64.38
2022-08-25T00:45:52.305Z,64.69
2022-08-25T00:46:56.719Z,64.87
2022-08-25T00:48:02.457Z,64.75
2022-08-25T00:49:06.916Z,64.83
2022-08-25T00:50:12.820Z,64.11
2022-08-25T00:51:17.264Z,64.83
2022-08-25T00:52:21.667Z,64.59
2022-08-25T00:53:26.050Z,64.68
2022-08-25T00:54:30.426Z,64.53
2022-08-25T00:55:34.822Z,64.95
2022-08-25T00:56:39.209Z,64.81
2022-08-25T00:57:43.661Z,64.59
2022-08-25T00:58:48.108Z,64.84
2022-08-25T00:59:52.537Z,64.55
2022-08-25T01:00:56.950Z,64.77
2022-08-25T01:02:01.432Z,64.92
2022-08-25T01:03:06.147Z,64.69
2022-08-25T01:04:10.568Z,65.03
2022-08-25T01:05:14.934Z,64.48
2022-08-25T01:06:19.309Z,64.85
2022-08-25T01:07:23.705Z,64.74
2022-08-25T01:08:33.151Z,64.83
2022-08-25T01:09:37.518Z,64.89
2022-08-25T01:10:41.900Z,64.69
2022-08-25T01:11:46.261Z,64.45
2022-08-25T01:12:50.614Z,64.82
2022-08-25T01:13:54.985Z,64.8
2022-08-25T01:14:59.371Z,64.92
2022-08-25T01:16:04.009Z,65.11
2022-08-25T01:17:08.391Z,64.94
2022-08-25T01:18:12.752Z,64.8
2022-08-25T01:19:17.493Z,65.11
2022-08-25T01:20:21.923Z,65
2022-08-25T01:21:26.377Z,65.26
2022-08-25T01:22:30.771Z,64.9
2022-08-25T01:23:35.169Z,64.68
2022-08-25T01:24:39.597Z,63.79
2022-08-25T01:25:44.037Z,64.95
2022-08-25T01:26:48.453Z,64.76
2022-08-25T01:27:52.826Z,65.01
2022-08-25T01:28:57.226Z,64.94
2022-08-25T01:30:01.587Z,64.96
2022-08-25T01:31:24.548Z,64.68
2022-08-25T01:32:29.028Z,64.69
2022-08-25T01:33:33.445Z,64.61
2022-08-25T01:34:37.825Z,64.72
2022-08-25T01:35:42.195Z,64.3
2022-08-25T01:36:46.581Z,64.27
2022-08-25T01:37:50.994Z,64.16
2022-08-25T01:38:55.358Z,64.56
2022-08-25T01:39:59.868Z,64.35
2022-08-25T01:41:04.260Z,64.46
2022-08-25T01:42:08.641Z,64.68
2022-08-25T01:43:13.011Z,64.78
2022-08-25T01:44:18.733Z,64.65
2022-08-25T01:45:23.075Z,64.71
2022-08-25T01:46:27.773Z,64.78
2022-08-25T01:47:32.189Z,64.71
2022-08-25T01:48:36.542Z,65.06
2022-08-25T01:49:40.903Z,64.8
2022-08-25T01:50:45.283Z,64.99
2022-08-25T01:51:49.632Z,64.88
2022-08-25T01:52:54.019Z,64.31
2022-08-25T01:53:58.373Z,64.5
2022-08-25T01:55:02.712Z,64.13
2022-08-25T01:56:11.587Z,64.7
2022-08-25T01:57:16.075Z,64.71
2022-08-25T01:58:20.473Z,65.13
2022-08-25T01:59:26.411Z,64.94
2022-08-25T02:00:30.907Z,64.13
2022-08-25T02:01:35.482Z,64.8
2022-08-25T02:02:45.131Z,63.76
2022-08-25T02:03:51.791Z,64.71
2022-08-25T02:04:57.722Z,64.78
2022-08-25T02:06:03.784Z,64.61
2022-08-25T02:07:08.653Z,64.77
2022-08-25T02:08:13.017Z,64.76
2022-08-25T02:09:17.372Z,64.83
2022-08-25T02:10:21.963Z,64.7
2022-08-25T02:11:27.618Z,64.87
2022-08-25T02:12:32.010Z,64.43
2022-08-25T02:13:36.638Z,64.25
2022-08-25T02:14:42.735Z,64.56
2022-08-25T02:15:47.116Z,64.05
2022-08-25T02:16:51.786Z,64.32
2022-08-25T02:17:56.211Z,64.35
2022-08-25T02:19:00.587Z,64.32
2022-08-25T02:20:05.063Z,63.96
2022-08-25T02:21:09.557Z,64.22
2022-08-25T02:22:13.974Z,64.58
2022-08-25T02:23:18.443Z,63.98
2022-08-25T02:24:22.849Z,64.04
2022-08-25T02:25:27.251Z,64.24
2022-08-25T02:26:31.595Z,64.22
2022-08-25T02:27:35.945Z,63.94
2022-08-25T02:28:40.330Z,63.74
2022-08-25T02:29:45.688Z,64.26
2022-08-25T02:30:50.335Z,64.3
2022-08-25T02:31:54.738Z,64.21
2022-08-25T02:32:59.107Z,64.34
2022-08-25T02:34:03.462Z,64.34
2022-08-25T02:35:07.818Z,64.18
2022-08-25T02:36:12.180Z,64.23
2022-08-25T02:37:16.557Z,64.3
2022-08-25T02:38:20.936Z,63.9
2022-08-25T02:39:25.289Z,63.63
2022-08-25T02:40:29.860Z,64.24
2022-08-25T02:41:34.243Z,64.21
2022-08-25T02:42:38.605Z,63.52
2022-08-25T02:43:47.114Z,64.15
2022-08-25T02:44:51.475Z,63.92
2022-08-25T02:45:55.952Z,63.87
2022-08-25T02:47:00.328Z,63.95
2022-08-25T02:48:05.019Z,63.93
2022-08-25T02:49:09.510Z,64.01
2022-08-25T02:50:13.883Z,63.32
2022-08-25T02:51:18.243Z,63.77
2022-08-25T02:52:22.609Z,63.88
2022-08-25T02:53:26.946Z,63.8
2022-08-25T02:54:31.270Z,64.01
2022-08-25T02:55:36.621Z,63.88
2022-08-25T02:56:41.185Z,64.01
2022-08-25T02:57:45.543Z,63.73
2022-08-25T02:58:49.900Z,63.47
2022-08-25T02:59:54.238Z,63.75
2022-08-25T03:00:58.938Z,64.05
2022-08-25T03:02:03.350Z,62.99
2022-08-25T03:03:07.712Z,63.88
2022-08-25T03:04:12.047Z,63.65
2022-08-25T03:05:16.683Z,63.71
2022-08-25T03:06:21.068Z,63.34
2022-08-25T03:07:26.763Z,63.76
2022-08-25T03:08:32.211Z,63.83
2022-08-25T03:09:40.198Z,63.6
2022-08-25T03:10:44.627Z,63.8
2022-08-25T03:11:49.006Z,63.49
2022-08-25T03:12:53.401Z,63.64
2022-08-25T03:13:57.814Z,63.76
2022-08-25T03:15:03.506Z,63.22
2022-08-25T03:16:14.015Z,63.35
2022-08-25T03:17:18.394Z,63.58
2022-08-25T03:18:25.162Z,63.66
2022-08-25T03:19:29.560Z,63.29
2022-08-25T03:20:33.942Z,63.19
2022-08-25T03:21:38.399Z,63.52
2022-08-25T03:22:42.755Z,63.47
2022-08-25T03:23:47.138Z,63.28
2022-08-25T03:24:51.540Z,62.99
2022-08-25T03:26:01.897Z,63.15
2022-08-25T03:27:06.394Z,63.19
2022-08-25T03:28:10.805Z,63.34
2022-08-25T03:29:15.194Z,63.05
2022-08-25T03:30:19.620Z,63
2022-08-25T03:31:24.238Z,63.35
2022-08-25T03:32:28.644Z,63.43
2022-08-25T03:33:33.041Z,63.25
2022-08-25T03:34:37.408Z,63.5
2022-08-25T03:35:41.793Z,63.45
2022-08-25T03:36:46.242Z,63.37
2022-08-25T03:37:51.248Z,63.57
2022-08-25T03:38:55.709Z,62.9
2022-08-25T03:40:00.329Z,63.37
2022-08-25T03:41:04.747Z,63.37
2022-08-25T03:42:09.146Z,63.15
2022-08-25T03:43:13.519Z,62.88
2022-08-25T03:44:17.931Z,62.87
2022-08-25T03:45:22.309Z,63.38
2022-08-25T03:46:26.657Z,62.84
2022-08-25T03:47:31.064Z,63.51
2022-08-25T03:48:35.454Z,63.6
2022-08-25T03:49:39.851Z,63.54
2022-08-25T03:50:52.791Z,63.47
2022-08-25T03:51:57.505Z,62.86
2022-08-25T03:53:01.902Z,63.05
2022-08-25T03:54:06.333Z,63.29
2022-08-25T03:55:10.725Z,63.13
2022-08-25T03:56:15.154Z,62.99
2022-08-25T03:57:19.570Z,63.2
2022-08-25T03:58:23.959Z,63.53
2022-08-25T03:59:28.334Z,62.82
2022-08-25T04:00:32.730Z,62.81
2022-08-25T04:01:37.337Z,63.21
2022-08-25T04:02:42.242Z,63.12
2022-08-25T04:03:46.667Z,63.55
2022-08-25T04:04:51.772Z,63.11
2022-08-25T04:05:59.977Z,62.73
2022-08-25T04:07:04.318Z,62.96
2022-08-25T04:08:12.059Z,62.73
2022-08-25T04:09:16.398Z,62.31
2022-08-25T04:10:20.739Z,62.33
2022-08-25T04:11:25.086Z,62.15
2022-08-25T04:12:30.226Z,62.34
2022-08-25T04:13:35.753Z,62.15
2022-08-25T04:14:40.137Z,62.06
2022-08-25T04:15:44.482Z,62.17
2022-08-25T04:16:49.005Z,62.25
2022-08-25T04:17:55.022Z,62.16
2022-08-25T04:18:59.498Z,62.27
2022-08-25T04:20:03.883Z,62.36
2022-08-25T04:21:08.335Z,62.45
2022-08-25T04:22:15.264Z,62.47
2022-08-25T04:23:19.635Z,62.52
2022-08-25T04:24:24.042Z,62.6
2022-08-25T04:25:28.434Z,62.55
2022-08-25T04:26:32.829Z,62.56
2022-08-25T04:27:37.194Z,62.6
2022-08-25T04:28:41.561Z,62.44
2022-08-25T04:29:45.948Z,62.44
2022-08-25T04:30:54.115Z,62.46
2022-08-25T04:31:58.847Z,62.53
2022-08-25T04:33:03.229Z,62.62
2022-08-25T04:34:32.829Z,62.66
2022-08-25T04:35:37.244Z,62.85
2022-08-25T04:36:42.993Z,62.76
2022-08-25T04:37:47.398Z,62.75
2022-08-25T04:38:51.809Z,62.76
2022-08-25T04:39:56.312Z,62.79
2022-08-25T04:41:00.736Z,62.77
2022-08-25T04:42:05.080Z,62.76
2022-08-25T04:43:09.436Z,62.72
2022-08-25T04:44:13.845Z,62.67
2022-08-25T04:45:18.245Z,62.71
2022-08-25T04:46:23.030Z,62.72
2022-08-25T04:47:30.177Z,62.79
2022-08-25T04:48:34.545Z,62.74
2022-08-25T04:49:38.934Z,62.64
2022-08-25T04:50:43.300Z,62.67
2022-08-25T04:51:47.658Z,62.75
2022-08-25T04:52:51.984Z,62.71
2022-08-25T04:53:58.474Z,62.7
2022-08-25T04:55:02.904Z,62.78
2022-08-25T04:56:07.274Z,62.8
2022-08-25T04:57:11.645Z,62.77
2022-08-25T04:58:18.596Z,62.73
2022-08-25T04:59:22.959Z,62.62
2022-08-25T05:00:27.347Z,62.74
2022-08-25T05:01:31.933Z,62.72
2022-08-25T05:02:36.311Z,62.76
2022-08-25T05:03:40.709Z,62.73
2022-08-25T05:04:45.304Z,62.75
2022-08-25T05:05:49.677Z,62.73
2022-08-25T05:06:54.091Z,62.74
2022-08-25T05:07:58.467Z,62.76
2022-08-25T05:09:06.336Z,62.77
2022-08-25T05:10:12.962Z,62.69
2022-08-25T05:11:18.517Z,62.43
2022-08-25T05:12:22.867Z,62.44
2022-08-25T05:13:28.337Z,62.7
2022-08-25T05:14:34.692Z,62.75
2022-08-25T05:15:39.848Z,62.63
2022-08-25T05:16:44.421Z,62.88
2022-08-25T05:17:51.627Z,62.54
2022-08-25T05:18:58.175Z,62.77
2022-08-25T05:20:02.970Z,62.71
2022-08-25T05:21:07.325Z,62.75
2022-08-25T05:22:11.693Z,62.78
2022-08-25T05:23:16.037Z,62.67
2022-08-25T05:24:20.504Z,62.52
2022-08-25T05:25:24.935Z,62.8
2022-08-25T05:26:29.629Z,62.59
2022-08-25T05:27:34.394Z,62.81
2022-08-25T05:28:38.751Z,62.65
2022-08-25T05:29:43.112Z,62.52
2022-08-25T05:30:47.470Z,62.56
2022-08-25T05:31:53.172Z,62.74
2022-08-25T05:32:57.570Z,62.84
2022-08-25T05:34:01.921Z,62.8
2022-08-25T05:35:06.270Z,62.99
2022-08-25T05:36:10.623Z,62.88
2022-08-25T05:37:14.979Z,63.1
2022-08-25T05:38:19.357Z,63.21
2022-08-25T05:39:24.898Z,63.13
2022-08-25T05:40:31.673Z,63.07
2022-08-25T05:41:36.136Z,63.37
2022-08-25T05:42:40.500Z,63.19
2022-08-25T05:43:44.824Z,62.97
2022-08-25T05:44:49.325Z,63.41
2022-08-25T05:45:53.779Z,63.12
2022-08-25T05:46:58.316Z,63.18
2022-08-25T05:48:02.887Z,63.21
2022-08-25T05:49:07.286Z,63.29
2022-08-25T05:50:11.669Z,63.05
2022-08-25T05:51:16.077Z,63.05
2022-08-25T05:52:22.357Z,63.16
2022-08-25T05:53:27.048Z,63.29
2022-08-25T05:54:31.609Z,63.23
2022-08-25T05:55:35.955Z,63.2
2022-08-25T05:56:40.327Z,63.28
2022-08-25T05:57:44.885Z,63.35
2022-08-25T05:58:49.309Z,63.21
2022-08-25T05:59:53.821Z,63.3
2022-08-25T06:00:58.526Z,63.26
2022-08-25T06:02:03.020Z,63.31
2022-08-25T06:03:07.543Z,63.35
2022-08-25T06:04:11.963Z,63.26
2022-08-25T06:05:16.333Z,63.07
2022-08-25T06:06:20.791Z,63.12
2022-08-25T06:07:28.052Z,63.28
2022-08-25T06:08:32.489Z,63.09
2022-08-25T06:09:36.809Z,62.97
2022-08-25T06:10:41.162Z,62.97
2022-08-25T06:11:45.493Z,63.09
2022-08-25T06:12:50.918Z,62.99
2022-08-25T06:13:55.280Z,63.13
2022-08-25T06:14:59.778Z,63.1
2022-08-25T06:16:04.357Z,63.39
2022-08-25T06:17:08.732Z,63.17
2022-08-25T06:18:13.200Z,63.23
2022-08-25T06:19:17.541Z,63.24
2022-08-25T06:20:26.786Z,63.32
2022-08-25T06:21:31.180Z,63.42
2022-08-25T06:22:35.579Z,63.11
2022-08-25T06:23:39.912Z,63.18
2022-08-25T06:24:44.250Z,63.61
2022-08-25T06:25:48.584Z,63.68
2022-08-25T06:26:52.978Z,63.66
2022-08-25T06:27:57.318Z,63.42
2022-08-25T06:29:01.643Z,63.45
2022-08-25T06:30:11.901Z,63.33
2022-08-25T06:31:16.632Z,63.07
2022-08-25T06:32:21.071Z,63.15
2022-08-25T06:33:25.431Z,63.16
2022-08-25T06:34:29.869Z,62.95
2022-08-25T06:35:37.242Z,63.38
2022-08-25T06:36:41.627Z,63.48
2022-08-25T06:37:45.969Z,63.09
2022-08-25T06:38:50.312Z,62.95
2022-08-25T06:39:54.892Z,63.12
2022-08-25T06:40:59.244Z,63.2
2022-08-25T06:42:03.557Z,62.97
2022-08-25T06:43:07.908Z,62.99
2022-08-25T06:44:12.252Z,63.06
2022-08-25T06:45:16.672Z,62.92
2022-08-25T06:46:21.248Z,62.79
2022-08-25T06:47:25.949Z,62.66
2022-08-25T06:48:30.384Z,62.82
2022-08-25T06:49:38.148Z,62.95
2022-08-25T06:50:42.525Z,62.98
2022-08-25T06:51:46.959Z,62.85
2022-08-25T06:52:51.310Z,62.83
2022-08-25T06:53:55.730Z,62.77
2022-08-25T06:55:00.101Z,62.9
2022-08-25T06:56:08.589Z,62.8
2022-08-25T06:57:13.126Z,62.5
2022-08-25T06:58:17.875Z,62.48
2022-08-25T06:59:22.241Z,62.54
2022-08-25T07:00:33.782Z,62.38
2022-08-25T07:01:38.804Z,62.67
2022-08-25T07:02:43.517Z,62.6
2022-08-25T07:03:49.551Z,62.55
2022-08-25T07:04:57.138Z,62.8
2022-08-25T07:06:01.503Z,62.8
2022-08-25T07:07:05.820Z,62.49
2022-08-25T07:08:10.161Z,62.55
2022-08-25T07:09:14.510Z,62.89
2022-08-25T07:10:21.614Z,63.09
2022-08-25T07:11:26.004Z,63.03
2022-08-25T07:12:30.336Z,62.98
2022-08-25T07:13:35.908Z,62.79
2022-08-25T07:14:40.342Z,62.92
2022-08-25T07:15:59.152Z,62.97
2022-08-25T07:17:12.466Z,62.99
2022-08-25T07:18:17.108Z,62.99
2022-08-25T07:19:21.495Z,62.88
2022-08-25T07:21:36.980Z,62.92
2022-08-25T07:22:41.352Z,62.86
2022-08-25T07:23:45.780Z,62.92
2022-08-25T07:24:50.132Z,62.9
2022-08-25T07:25:54.549Z,62.75
2022-08-25T07:26:58.876Z,62.86
2022-08-25T07:28:04.541Z,62.73
2022-08-25T07:29:09.614Z,62.75
2022-08-25T07:30:14.042Z,62.64
2022-08-25T07:31:18.996Z,62.51
2022-08-25T07:32:23.593Z,62.42
2022-08-25T07:33:29.494Z,62.59
2022-08-25T07:34:35.528Z,62.8
2022-08-25T07:35:45.773Z,62.95
2022-08-25T07:36:50.420Z,63.12
2022-08-25T07:37:58.174Z,63.1
2022-08-25T07:39:02.915Z,63.64
2022-08-25T07:40:07.493Z,63.43
2022-08-25T07:41:11.992Z,63.19
2022-08-25T07:42:19.527Z,62.99
2022-08-25T07:43:24.984Z,62.75
2022-08-25T07:44:30.628Z,62.8
2022-08-25T07:45:35.044Z,62.76
2022-08-25T07:46:39.799Z,62.65
2022-08-25T07:47:46.864Z,62.79
2022-08-25T07:48:55.246Z,62.88
2022-08-25T07:49:59.596Z,62.87
2022-08-25T07:51:09.660Z,62.78
2022-08-25T07:52:14.692Z,62.91
2022-08-25T07:53:19.210Z,62.72
2022-08-25T07:54:37.720Z,62.63
2022-08-25T07:55:45.076Z,63.22
2022-08-25T07:56:49.621Z,63.06
2022-08-25T07:57:58.333Z,62.9
2022-08-25T07:59:05.588Z,62.69
2022-08-25T08:00:11.243Z,62.9
2022-08-25T08:01:15.723Z,62.94
2022-08-25T08:02:25.732Z,62.82
2022-08-25T08:03:52.774Z,63.07
2022-08-25T08:04:57.595Z,63.19
2022-08-25T08:06:02.336Z,63.04
2022-08-25T08:07:14.021Z,63.82
2022-08-25T08:08:21.010Z,63.82
2022-08-25T08:09:25.376Z,63.6
2022-08-25T08:11:06.914Z,63.51
2022-08-25T08:12:16.130Z,63.52
2022-08-25T08:13:24.128Z,63.64
2022-08-25T08:14:28.497Z,63.47
2022-08-25T08:15:32.899Z,63.46
2022-08-25T08:16:37.657Z,63.36
2022-08-25T08:17:43.192Z,63.43
2022-08-25T08:18:48.427Z,63.57
2022-08-25T08:19:52.775Z,63.78
2022-08-25T08:20:57.136Z,63.5
2022-08-25T08:22:04.464Z,63.36
2022-08-25T08:23:09.436Z,63.4
2022-08-25T08:24:56.327Z,63.2
2022-08-25T08:26:01.873Z,63.12
2022-08-25T08:27:06.345Z,62.99
2022-08-25T08:28:12.944Z,63.08
2022-08-25T08:29:17.823Z,63.57
2022-08-25T08:30:26.132Z,63.65
2022-08-25T08:31:30.952Z,63.46
2022-08-25T08:33:13.139Z,63.81
2022-08-25T08:34:17.565Z,63.77
2022-08-25T08:35:22.805Z,63.84
2022-08-25T08:36:28.318Z,63.41
2022-08-25T08:37:35.386Z,64.05
2022-08-25T08:38:42.452Z,63.3
2022-08-25T08:39:47.700Z,63.31
2022-08-25T08:40:55.702Z,63.32
2022-08-25T08:42:18.964Z,63.8
2022-08-25T08:43:33.843Z,64.28
2022-08-25T08:44:38.149Z,64.34
2022-08-25T08:45:46.013Z,63.57
2022-08-25T08:46:51.668Z,63.47
2022-08-25T08:47:59.381Z,62.6
2022-08-25T08:49:04.308Z,63.57
2022-08-25T08:50:08.745Z,64
2022-08-25T08:51:13.775Z,63.4
2022-08-25T08:52:18.558Z,63.99
2022-08-25T08:53:25.053Z,63.29
2022-08-25T08:54:35.100Z,63.72
2022-08-25T08:55:41.011Z,63.26
2022-08-25T08:56:50.633Z,62.98
2022-08-25T08:57:56.527Z,62.63
2022-08-25T08:59:08.108Z,63.57
2022-08-25T09:00:12.741Z,63.49
2022-08-25T09:01:17.339Z,63.17
2022-08-25T09:02:53.191Z,62.74
2022-08-25T09:03:58.879Z,62.52
2022-08-25T09:05:04.770Z,62.15
2022-08-25T09:06:12.363Z,62.99
2022-08-25T09:07:21.729Z,63.53
2022-08-25T09:08:29.030Z,63.06
2022-08-25T09:09:39.782Z,62.86
2022-08-25T09:10:44.216Z,62.74
2022-08-25T09:11:51.920Z,62.97
2022-08-25T09:12:56.503Z,62.73
2022-08-25T09:14:00.860Z,62.95
2022-08-25T09:15:15.318Z,63.58
2022-08-25T09:16:36.593Z,63.1
2022-08-25T09:17:40.986Z,62.7
2022-08-25T09:18:53.811Z,62.19
2022-08-25T09:19:59.747Z,62.52
2022-08-25T09:21:04.151Z,62.35
2022-08-25T09:22:37.918Z,61.7
2022-08-25T09:23:42.813Z,61.84
2022-08-25T09:24:49.302Z,61.52
2022-08-25T09:25:56.088Z,61.5
2022-08-25T09:27:00.963Z,61.44
2022-08-25T09:28:05.875Z,61.5
2022-08-25T09:29:18.484Z,61.5
2022-08-25T09:30:27.016Z,62.34
2022-08-25T09:31:32.253Z,61.53
2022-08-25T09:32:38.297Z,61.5
2022-08-25T09:33:44.302Z,62.17
2022-08-25T09:34:51.103Z,61.61
2022-08-25T09:35:58.468Z,61.4
2022-08-25T09:37:02.982Z,60.91
2022-08-25T09:38:08.000Z,61.29
2022-08-25T09:39:12.339Z,61.08
2022-08-25T09:40:17.160Z,61.35
2022-08-25T09:41:23.870Z,61.38
2022-08-25T09:42:30.127Z,61.77
2022-08-25T09:43:34.467Z,60.88
2022-08-25T09:44:38.934Z,61.02
2022-08-25T09:45:44.558Z,61.02
2022-08-25T09:46:49.062Z,60.92
2022-08-25T09:47:54.858Z,60.75
2022-08-25T09:48:59.816Z,60.99
2022-08-25T09:50:07.779Z,60.97
2022-08-25T09:51:12.135Z,61.49
2022-08-25T09:52:19.490Z,61.41
2022-08-25T09:53:25.525Z,60.78
2022-08-25T09:54:48.703Z,61.56
2022-08-25T09:56:02.500Z,61.11
2022-08-25T09:57:10.736Z,61.27
2022-08-25T09:58:18.337Z,61.41
2022-08-25T09:59:37.014Z,60.61
2022-08-25T10:00:43.299Z,61
2022-08-25T10:01:48.074Z,61.58
2022-08-25T10:02:52.509Z,61.25
2022-08-25T10:03:56.990Z,61.29
2022-08-25T10:05:01.670Z,60.94
2022-08-25T10:06:06.037Z,61.22
2022-08-25T10:07:10.709Z,60.74
2022-08-25T10:08:19.329Z,60.77
2022-08-25T10:09:29.040Z,60.69
2022-08-25T10:10:35.492Z,61.78
2022-08-25T10:11:40.227Z,60.99
2022-08-25T10:12:52.174Z,61.26
2022-08-25T10:13:57.140Z,60.6
2022-08-25T10:15:01.488Z,62.04
2022-08-25T10:16:24.742Z,61.6
2022-08-25T10:17:30.992Z,61.59
2022-08-25T10:18:37.982Z,61.52
2022-08-25T10:19:42.334Z,61.42
2022-08-25T10:20:47.266Z,60.79
2022-08-25T10:21:52.175Z,61.76
2022-08-25T10:22:56.857Z,60.48
2022-08-25T10:24:03.107Z,61.54
2022-08-25T10:25:07.790Z,61.23
2022-08-25T10:26:14.253Z,60.74
2022-08-25T10:27:20.685Z,60.9
2022-08-25T10:28:25.006Z,60.9
2022-08-25T10:29:29.537Z,61.11
2022-08-25T10:30:37.002Z,60.89
2022-08-25T10:31:43.494Z,60.58
2022-08-25T10:32:47.881Z,60.81
2022-08-25T10:33:52.500Z,61.53
2022-08-25T10:34:57.025Z,60.8
2022-08-25T10:36:01.398Z,61.04
2022-08-25T10:37:10.177Z,61.4
2022-08-25T10:38:29.414Z,61.29
2022-08-25T10:39:41.634Z,61.25
2022-08-25T10:40:46.906Z,61.26
2022-08-25T10:41:55.459Z,61.53
2022-08-25T10:42:59.865Z,60.87
2022-08-25T10:44:05.546Z,61.95
2022-08-25T10:45:18.205Z,61.86
2022-08-25T10:46:26.617Z,61.42
2022-08-25T10:47:31.046Z,61.04
2022-08-25T10:48:38.572Z,61.92
2022-08-25T10:49:43.436Z,61.34
2022-08-25T10:50:51.465Z,61.19
2022-08-25T10:51:56.258Z,62.32
2022-08-25T10:53:01.210Z,62.11
2022-08-25T10:54:05.650Z,61.85
2022-08-25T10:55:10.011Z,61.4
2022-08-25T10:56:14.362Z,61.87
2022-08-25T10:57:18.913Z,61.76
2022-08-25T10:58:25.359Z,62.09
2022-08-25T10:59:34.967Z,62.11
2022-08-25T11:00:49.215Z,62.21
2022-08-25T11:01:55.819Z,62.26
2022-08-25T11:03:01.096Z,62.08
2022-08-25T11:04:05.679Z,62.07
2022-08-25T11:05:12.617Z,62.15
2022-08-25T11:06:17.007Z,62.29
2022-08-25T11:07:21.539Z,62.25
2022-08-25T11:08:26.271Z,62.32
2022-08-25T11:09:30.700Z,62.15
2022-08-25T11:10:35.043Z,62.29
2022-08-25T11:11:39.565Z,62.12
2022-08-25T11:12:44.883Z,62.19
2022-08-25T11:13:49.923Z,62.46
2022-08-25T11:14:54.245Z,62.37
2022-08-25T11:16:21.909Z,62.09
2022-08-25T11:17:31.252Z,62.3
2022-08-25T11:18:36.528Z,62.44
2022-08-25T11:19:40.860Z,62.3
2022-08-25T11:20:45.219Z,62.18
2022-08-25T11:21:51.309Z,62.24
2022-08-25T11:22:56.351Z,62.25
2022-08-25T11:24:01.173Z,62.38
2022-08-25T11:25:06.774Z,62.26
2022-08-25T11:26:12.068Z,62.21
2022-08-25T11:27:22.619Z,62.04
2022-08-25T11:28:30.215Z,61.72
2022-08-25T11:29:34.647Z,62.2
2022-08-25T11:30:42.215Z,62.04
2022-08-25T11:31:54.363Z,62.01
2022-08-25T11:33:01.024Z,62.1
2022-08-25T11:34:06.670Z,61.91
2022-08-25T11:35:14.619Z,61.82
2022-08-25T11:36:21.896Z,62.07
2022-08-25T11:37:33.812Z,61.99
2022-08-25T11:38:39.025Z,61.82
2022-08-25T11:39:44.204Z,62.26
2022-08-25T11:40:52.410Z,62.12
2022-08-25T11:41:58.129Z,62.07
2022-08-25T11:43:03.246Z,62.1
2022-08-25T11:44:12.381Z,62.25
2022-08-25T11:45:18.619Z,61.68
2022-08-25T11:46:28.692Z,62.22
2022-08-25T11:47:33.155Z,62.05
2022-08-25T11:48:37.825Z,62.09
2022-08-25T11:49:42.981Z,62.07
2022-08-25T11:50:48.364Z,62.11
2022-08-25T11:51:54.218Z,62.29
2022-08-25T11:52:58.676Z,62.1
2022-08-25T11:54:05.711Z,62.17
2022-08-25T11:55:11.765Z,61.82
2022-08-25T11:56:16.135Z,62.16
2022-08-25T11:57:21.968Z,61.96
2022-08-25T11:58:27.861Z,62.26
2022-08-25T11:59:34.936Z,62
2022-08-25T12:00:39.338Z,62.04
2022-08-25T12:01:45.445Z,62.07
2022-08-25T12:02:49.790Z,61.99
2022-08-25T12:03:54.620Z,61.96
2022-08-25T12:04:59.840Z,62.16
2022-08-25T12:06:05.304Z,61.87
2022-08-25T12:07:11.577Z,62.14
2022-08-25T12:08:18.566Z,62.1
2022-08-25T12:09:23.608Z,62.07
2022-08-25T12:10:27.996Z,62.12
2022-08-25T12:11:36.570Z,62.28
2022-08-25T12:12:41.214Z,62.45
2022-08-25T12:13:46.364Z,62.43
2022-08-25T12:14:50.784Z,62.4
2022-08-25T12:15:55.228Z,62.21
2022-08-25T12:17:00.146Z,61.92
2022-08-25T12:18:12.597Z,62.05
2022-08-25T12:19:18.922Z,62.26
2022-08-25T12:20:26.076Z,62.39
2022-08-25T12:21:30.427Z,62.45
2022-08-25T12:22:35.188Z,62.18
2022-08-25T12:23:46.355Z,62.02
2022-08-25T12:24:55.912Z,62.72
2022-08-25T12:26:01.050Z,62.61
2022-08-25T12:27:08.663Z,62.62
2022-08-25T12:28:12.995Z,62.54
2022-08-25T12:29:17.403Z,62.41
2022-08-25T12:30:28.781Z,62.11
2022-08-25T12:31:34.715Z,62.16
2022-08-25T12:32:39.065Z,62.35
2022-08-25T12:33:44.491Z,62.48
2022-08-25T12:34:50.231Z,62.02
2022-08-25T12:35:56.395Z,62.41
2022-08-25T12:37:01.443Z,62.46
2022-08-25T12:38:10.743Z,62.49
2022-08-25T12:39:17.524Z,62.32
2022-08-25T12:40:23.927Z,62.57
2022-08-25T12:41:33.637Z,62.38
2022-08-25T12:42:40.633Z,62.59
2022-08-25T12:43:45.016Z,62.35
2022-08-25T12:44:50.589Z,62.45
2022-08-25T12:45:55.286Z,62.36
2022-08-25T12:47:03.684Z,62.4
2022-08-25T12:48:09.621Z,62.43
2022-08-25T12:49:14.184Z,62.32
2022-08-25T12:50:18.971Z,62.47
2022-08-25T12:51:23.631Z,62.29
2022-08-25T12:52:30.098Z,62.39
2022-08-25T12:53:35.080Z,62.6
2022-08-25T12:54:40.020Z,62.42
2022-08-25T12:55:44.585Z,62.49
2022-08-25T12:56:50.248Z,62.12
2022-08-25T12:57:54.600Z,62.5
2022-08-25T12:59:02.566Z,62.52
2022-08-25T13:00:07.714Z,62.3
2022-08-25T13:01:37.425Z,62.3
2022-08-25T13:02:53.900Z,62.03
2022-08-25T13:03:58.322Z,62.21
2022-08-25T13:05:04.973Z,61.98
2022-08-25T13:06:10.261Z,62.43
2022-08-25T13:07:16.982Z,62.58
2022-08-25T13:08:21.792Z,62.18
2022-08-25T13:09:26.211Z,62.34
2022-08-25T13:10:30.583Z,62.13
2022-08-25T13:11:35.274Z,62.15
2022-08-25T13:12:39.740Z,62.33
2022-08-25T13:13:44.323Z,61.82
2022-08-25T13:14:51.216Z,62.59
2022-08-25T13:15:56.910Z,62.03
2022-08-25T13:17:02.884Z,62.2
2022-08-25T13:18:09.757Z,62.55
2022-08-25T13:19:15.088Z,62.37
2022-08-25T13:20:23.828Z,62.33
2022-08-25T13:21:30.552Z,62.88
2022-08-25T13:22:36.697Z,62.57
2022-08-25T13:23:41.189Z,62.65
2022-08-25T13:24:50.407Z,62.29
2022-08-25T13:25:59.211Z,62.74
2022-08-25T13:27:07.482Z,62.6
2022-08-25T13:28:13.257Z,62.15
2022-08-25T13:29:22.696Z,62.17
2022-08-25T13:30:27.051Z,62.72
2022-08-25T13:31:31.591Z,62.55
2022-08-25T13:32:37.788Z,62.85
2022-08-25T13:33:44.006Z,62.47
2022-08-25T13:34:52.878Z,62.29
2022-08-25T13:35:57.908Z,62.51
2022-08-25T13:37:02.997Z,62.41
2022-08-25T13:38:07.815Z,62.24
2022-08-25T13:39:13.377Z,62.2
2022-08-25T13:40:20.472Z,62.47
2022-08-25T13:41:35.081Z,62.25
2022-08-25T13:42:51.030Z,62.22
2022-08-25T13:44:03.689Z,62.11
2022-08-25T13:45:09.606Z,62.26
2022-08-25T13:46:16.515Z,62.27
2022-08-25T13:47:22.813Z,62.04
2022-08-25T13:48:28.257Z,62.08
2022-08-25T13:49:33.403Z,62.08
2022-08-25T13:50:37.871Z,62.17
2022-08-25T13:51:45.568Z,62.24
2022-08-25T13:52:50.250Z,61.91
2022-08-25T13:54:00.264Z,62.03
2022-08-25T13:55:10.136Z,61.92
2022-08-25T13:57:25.942Z,62.09
2022-08-25T13:58:47.519Z,61.94
2022-08-25T13:59:53.216Z,62.01
2022-08-25T14:01:01.610Z,61.84
2022-08-25T14:02:08.722Z,61.76
2022-08-25T14:03:31.280Z,61.61
2022-08-25T14:04:38.493Z,61.69
2022-08-25T14:05:44.018Z,61.67
2022-08-25T14:06:48.401Z,61.37
2022-08-25T14:08:26.767Z,61.65
2022-08-25T14:09:32.763Z,61.6
2022-08-25T14:10:40.649Z,61.97
2022-08-25T14:11:45.084Z,61.95
2022-08-25T14:12:50.927Z,62.06
2022-08-25T14:13:57.917Z,61.95
2022-08-25T14:15:02.306Z,61.83
2022-08-25T14:16:06.892Z,61.77
2022-08-25T14:17:41.221Z,61.7
2022-08-25T14:18:47.013Z,61.62